createdAt,value
2023-01-10T00:01:25.941Z,100.00
2023-01-10T00:04:52.911Z,100.00
2023-01-10T00:08:20.180Z,100.00
2023-01-10T00:12:04.956Z,100.00
2023-01-10T00:15:34.845Z,100.00
2023-01-10T00:19:01.763Z,100.00
2023-01-10T00:22:28.717Z,100.00
2023-01-10T00:25:55.759Z,100.00
2023-01-10T00:29:26.044Z,100.00
2023-01-10T00:32:53.044Z,100.00
2023-01-10T00:36:20.170Z,100.00
2023-01-10T00:39:47.383Z,100.00
2023-01-10T00:43:31.979Z,100.00
2023-01-10T00:46:58.942Z,100.00
2023-01-10T00:50:25.825Z,100.00
2023-01-10T00:53:52.959Z,100.00
2023-01-10T00:57:20.027Z,100.00
2023-01-10T01:00:49.733Z,100.00
2023-01-10T01:04:17.203Z,100.00
2023-01-10T01:07:44.245Z,100.00
2023-01-10T01:11:11.117Z,100.00
2023-01-10T01:14:37.973Z,100.00
2023-01-10T01:18:05.745Z,100.00
2023-01-10T01:21:32.795Z,100.00
2023-01-10T01:24:59.748Z,100.00
2023-01-10T01:28:28.660Z,100.00
2023-01-10T01:31:57.162Z,100.00
2023-01-10T01:35:25.239Z,100.00
2023-01-10T01:38:52.137Z,100.00
2023-01-10T01:42:28.684Z,100.00
2023-01-10T01:45:59.248Z,100.00
2023-01-10T01:49:27.270Z,100.00
2023-01-10T01:52:58.154Z,100.00
2023-01-10T01:56:30.994Z,100.00
2023-01-10T01:59:58.925Z,100.00
2023-01-10T02:03:26.357Z,100.00
2023-01-10T02:06:56.498Z,100.00
2023-01-10T02:10:31.100Z,100.00
2023-01-10T02:13:59.220Z,100.00
2023-01-10T02:17:26.076Z,100.00
2023-01-10T02:21:14.174Z,100.00
2023-01-10T02:25:12.235Z,100.00
2023-01-10T02:29:02.425Z,100.00
2023-01-10T02:32:53.404Z,100.00
2023-01-10T02:36:37.088Z,100.00
2023-01-10T02:40:11.643Z,100.00
2023-01-10T02:43:47.130Z,100.00
2023-01-10T02:47:16.283Z,100.00
2023-01-10T02:50:54.854Z,100.00
2023-01-10T02:54:25.100Z,100.00
2023-01-10T02:57:58.125Z,100.00
2023-01-10T03:01:35.361Z,100.00
2023-01-10T03:05:11.214Z,100.00
2023-01-10T03:08:43.658Z,100.00
2023-01-10T03:12:18.860Z,100.00
2023-01-10T03:15:49.282Z,100.00
2023-01-10T03:19:20.923Z,100.00
2023-01-10T03:22:49.028Z,100.00
2023-01-10T03:26:17.195Z,100.00
2023-01-10T03:29:50.228Z,100.00
2023-01-10T03:33:21.092Z,100.00
2023-01-10T03:36:57.547Z,100.00
2023-01-10T03:40:31.799Z,100.00
2023-01-10T03:44:38.421Z,100.00
2023-01-10T03:48:09.543Z,100.00
2023-01-10T03:51:38.528Z,100.00
2023-01-10T03:55:06.796Z,100.00
2023-01-10T03:58:34.613Z,100.00
2023-01-10T04:02:01.592Z,100.00
2023-01-10T04:05:28.758Z,100.00
2023-01-10T04:08:55.649Z,100.00
2023-01-10T04:12:22.761Z,100.00
2023-01-10T04:15:50.937Z,100.00
2023-01-10T04:19:17.808Z,100.00
2023-01-10T04:22:46.132Z,100.00
2023-01-10T04:26:13.375Z,100.00
2023-01-10T04:29:40.596Z,100.00
2023-01-10T04:33:07.883Z,100.00
2023-01-10T04:36:34.804Z,100.00
2023-01-10T04:40:01.822Z,100.00
2023-01-10T04:43:29.215Z,100.00
2023-01-10T04:46:56.266Z,100.00
2023-01-10T04:50:23.940Z,100.00
2023-01-10T04:53:50.844Z,100.00
2023-01-10T04:57:18.171Z,100.00
2023-01-10T05:00:45.326Z,100.00
2023-01-10T05:04:12.286Z,100.00
2023-01-10T05:07:39.175Z,100.00
2023-01-10T05:11:06.302Z,100.00
2023-01-10T05:14:33.214Z,100.00
2023-01-10T05:18:01.982Z,100.00
2023-01-10T05:21:28.816Z,100.00
2023-01-10T05:24:55.954Z,100.00
2023-01-10T05:28:22.855Z,100.00
2023-01-10T05:31:51.592Z,100.00
2023-01-10T05:35:18.682Z,100.00
2023-01-10T05:38:46.117Z,100.00
2023-01-10T05:42:13.228Z,100.00
2023-01-10T05:45:40.464Z,100.00
2023-01-10T05:49:07.687Z,100.00
2023-01-10T05:52:34.579Z,100.00
2023-01-10T05:56:03.346Z,100.00
2023-01-10T05:59:30.283Z,100.00
2023-01-10T06:02:58.885Z,100.00
2023-01-10T06:06:25.760Z,100.00
2023-01-10T06:09:52.795Z,100.00
2023-01-10T06:13:19.745Z,100.00
2023-01-10T06:16:47.122Z,100.00
2023-01-10T06:20:15.535Z,100.00
2023-01-10T06:23:42.360Z,100.00
2023-01-10T06:27:09.664Z,100.00
2023-01-10T06:30:36.789Z,100.00
2023-01-10T06:34:03.669Z,100.00
2023-01-10T06:37:30.556Z,100.00
2023-01-10T06:40:57.436Z,100.00
2023-01-10T06:44:24.304Z,100.00
2023-01-10T06:47:51.159Z,100.00
2023-01-10T06:51:20.317Z,100.00
2023-01-10T06:54:47.573Z,100.00
2023-01-10T06:58:18.451Z,100.00
2023-01-10T07:01:45.622Z,100.00
2023-01-10T07:05:12.769Z,100.00
2023-01-10T07:08:40.597Z,100.00
2023-01-10T07:12:08.284Z,100.00
2023-01-10T07:15:35.139Z,100.00
2023-01-10T07:19:02.444Z,100.00
2023-01-10T07:22:29.481Z,100.00
2023-01-10T07:25:56.511Z,100.00
2023-01-10T07:29:23.382Z,100.00
2023-01-10T07:32:55.894Z,100.00
2023-01-10T07:36:23.317Z,100.00
2023-01-10T07:39:51.138Z,100.00
2023-01-10T07:43:18.340Z,100.00
2023-01-10T07:46:45.622Z,100.00
2023-01-10T07:50:13.355Z,100.00
2023-01-10T07:53:40.970Z,100.00
2023-01-10T07:57:07.852Z,100.00
2023-01-10T08:00:34.745Z,100.00
2023-01-10T08:04:01.588Z,100.00
2023-01-10T08:07:29.619Z,100.00
2023-01-10T08:10:56.620Z,100.00
2023-01-10T08:14:23.839Z,100.00
2023-01-10T08:17:50.757Z,100.00
2023-01-10T08:21:17.953Z,100.00
2023-01-10T08:24:45.172Z,100.00
2023-01-10T08:28:12.797Z,100.00
2023-01-10T08:31:41.401Z,100.00
2023-01-10T08:35:09.759Z,100.00
2023-01-10T08:38:36.676Z,100.00
2023-01-10T08:42:03.661Z,100.00
2023-01-10T08:45:30.955Z,100.00
2023-01-10T08:48:57.914Z,100.00
2023-01-10T08:52:24.784Z,100.00
2023-01-10T08:55:52.940Z,100.00
2023-01-10T08:59:20.032Z,100.00
2023-01-10T09:02:47.202Z,100.00
2023-01-10T09:06:14.497Z,100.00
2023-01-10T09:09:41.444Z,100.00
2023-01-10T09:13:09.759Z,100.00
2023-01-10T09:16:36.686Z,100.00
2023-01-10T09:20:07.689Z,100.00
2023-01-10T09:23:37.154Z,100.00
2023-01-10T09:27:04.438Z,100.00
2023-01-10T09:30:32.394Z,100.00
2023-01-10T09:33:59.334Z,100.00
2023-01-10T09:37:26.354Z,100.00
2023-01-10T09:41:34.382Z,100.00
2023-01-10T09:45:09.006Z,100.00
2023-01-10T09:48:44.776Z,100.00
2023-01-10T09:52:20.766Z,100.00
2023-01-10T09:55:51.931Z,100.00
2023-01-10T09:59:22.210Z,100.00
2023-01-10T10:02:52.589Z,100.00
2023-01-10T10:06:19.800Z,100.00
2023-01-10T10:09:46.919Z,100.00
2023-01-10T10:13:27.624Z,100.00
2023-01-10T10:17:15.874Z,100.00
2023-01-10T10:20:54.395Z,100.00
2023-01-10T10:24:38.449Z,100.00
2023-01-10T10:28:22.858Z,100.00
2023-01-10T10:32:08.604Z,100.00
2023-01-10T10:35:39.653Z,100.00
2023-01-10T10:39:08.373Z,100.00
2023-01-10T10:42:40.153Z,100.00
2023-01-10T10:46:12.148Z,100.00
2023-01-10T10:49:44.834Z,100.00
2023-01-10T10:53:13.438Z,100.00
2023-01-10T10:56:41.769Z,100.00
2023-01-10T11:00:16.134Z,100.00
2023-01-10T11:03:48.363Z,100.00
2023-01-10T11:07:19.900Z,100.00
2023-01-10T11:10:51.399Z,100.00
2023-01-10T11:14:38.626Z,100.00
2023-01-10T11:18:11.768Z,100.00
2023-01-10T11:21:40.413Z,100.00
2023-01-10T11:25:15.397Z,100.00
2023-01-10T11:28:45.970Z,100.00
2023-01-10T11:32:17.584Z,100.00
2023-01-10T11:36:00.433Z,100.00
2023-01-10T11:39:27.983Z,100.00
2023-01-10T11:42:59.043Z,100.00
2023-01-10T11:46:27.052Z,100.00
2023-01-10T11:49:54.051Z,100.00
2023-01-10T11:53:37.663Z,99.96
2023-01-10T11:57:09.596Z,99.99
2023-01-10T12:00:42.298Z,99.79
2023-01-10T12:04:14.700Z,99.82
2023-01-10T12:08:06.736Z,99.65
2023-01-10T12:11:35.954Z,99.59
2023-01-10T12:15:25.137Z,98.88
2023-01-10T12:18:54.558Z,98.58
2023-01-10T12:22:27.061Z,98.69
2023-01-10T12:26:10.664Z,99.22
2023-01-10T12:29:42.128Z,99.17
2023-01-10T12:33:16.289Z,99.58
2023-01-10T12:36:52.160Z,99.45
2023-01-10T12:40:25.125Z,99.35
2023-01-10T12:44:09.888Z,99.23
2023-01-10T12:47:49.571Z,99.11
2023-01-10T12:51:17.511Z,99.22
2023-01-10T12:54:47.275Z,99.20
2023-01-10T12:58:17.825Z,98.78
2023-01-10T13:01:48.413Z,98.87
2023-01-10T13:05:22.096Z,98.52
2023-01-10T13:08:49.837Z,97.98
2023-01-10T13:12:24.387Z,98.19
2023-01-10T13:15:55.557Z,98.09
2023-01-10T13:19:30.439Z,98.09
2023-01-10T13:22:59.101Z,98.16
2023-01-10T13:26:26.581Z,98.38
2023-01-10T13:29:54.676Z,98.47
2023-01-10T13:33:24.968Z,98.35
2023-01-10T13:36:56.765Z,98.71
2023-01-10T13:40:28.323Z,98.74
2023-01-10T13:44:14.039Z,98.47
2023-01-10T13:48:04.822Z,98.87
2023-01-10T13:51:32.821Z,98.59
2023-01-10T13:55:02.690Z,98.72
2023-01-10T13:59:03.168Z,98.71
2023-01-10T14:02:32.184Z,98.49
2023-01-10T14:06:00.023Z,98.45
2023-01-10T14:09:40.914Z,98.73
2023-01-10T14:13:17.663Z,98.27
2023-01-10T14:16:48.694Z,98.49
2023-01-10T14:20:23.155Z,98.59
2023-01-10T14:23:54.965Z,98.62
2023-01-10T14:27:23.871Z,98.66
2023-01-10T14:31:02.248Z,98.51
2023-01-10T14:34:32.124Z,98.45
2023-01-10T14:38:03.063Z,98.64
2023-01-10T14:41:38.241Z,98.59
2023-01-10T14:45:19.551Z,98.63
2023-01-10T14:48:51.691Z,99.04
2023-01-10T14:52:22.639Z,98.95
2023-01-10T14:55:49.540Z,98.92
2023-01-10T14:59:30.960Z,99.27
2023-01-10T15:03:01.704Z,99.16
2023-01-10T15:06:28.789Z,99.05
2023-01-10T15:09:57.556Z,99.23
2023-01-10T15:13:28.319Z,99.25
2023-01-10T15:17:00.804Z,99.00
2023-01-10T15:20:28.763Z,99.45
2023-01-10T15:23:56.201Z,99.12
2023-01-10T15:27:23.170Z,99.31
2023-01-10T15:30:50.961Z,99.45
2023-01-10T15:34:21.772Z,99.46
2023-01-10T15:37:53.551Z,99.21
2023-01-10T15:41:24.289Z,99.46
2023-01-10T15:44:56.500Z,99.63
2023-01-10T15:48:33.511Z,99.70
2023-01-10T15:52:00.630Z,99.73
2023-01-10T15:55:48.377Z,99.44
2023-01-10T15:59:28.293Z,99.20
2023-01-10T16:02:56.560Z,99.30
2023-01-10T16:06:25.874Z,99.07
2023-01-10T16:09:56.704Z,99.03
2023-01-10T16:13:39.442Z,98.76
2023-01-10T16:17:14.444Z,98.54
2023-01-10T16:20:46.156Z,98.58
2023-01-10T16:24:21.132Z,98.06
2023-01-10T16:27:48.657Z,98.03
2023-01-10T16:31:16.013Z,97.92
2023-01-10T16:34:43.952Z,97.96
2023-01-10T16:38:13.517Z,98.15
2023-01-10T16:41:58.460Z,98.43
2023-01-10T16:45:25.402Z,98.44
2023-01-10T16:48:53.409Z,98.51
2023-01-10T16:52:20.391Z,98.72
2023-01-10T16:55:49.265Z,98.92
2023-01-10T16:59:19.166Z,99.13
2023-01-10T17:02:46.886Z,99.45
2023-01-10T17:06:15.791Z,99.36
2023-01-10T17:09:42.821Z,99.39
2023-01-10T17:13:11.256Z,99.64
2023-01-10T17:16:38.285Z,99.47
2023-01-10T17:20:06.630Z,99.45
2023-01-10T17:23:33.661Z,99.43
2023-01-10T17:27:00.596Z,99.67
2023-01-10T17:30:27.584Z,99.77
2023-01-10T17:33:54.716Z,99.83
2023-01-10T17:37:21.684Z,100.00
2023-01-10T17:40:49.890Z,100.00
2023-01-10T17:44:16.914Z,100.00
2023-01-10T17:47:43.812Z,100.00
2023-01-10T17:51:13.225Z,100.00
2023-01-10T17:54:40.393Z,100.00
2023-01-10T17:58:07.511Z,100.00
2023-01-10T18:01:34.631Z,100.00
2023-01-10T18:05:01.826Z,100.00
2023-01-10T18:08:28.727Z,100.00
2023-01-10T18:11:55.900Z,100.00
2023-01-10T18:15:22.873Z,100.00
2023-01-10T18:18:50.386Z,100.00
2023-01-10T18:22:35.517Z,100.00
2023-01-10T18:26:04.862Z,100.00
2023-01-10T18:29:31.913Z,100.00
2023-01-10T18:32:59.586Z,100.00
2023-01-10T18:36:26.833Z,100.00
2023-01-10T18:39:53.867Z,100.00
2023-01-10T18:43:20.843Z,100.00
2023-01-10T18:46:47.808Z,100.00
2023-01-10T18:50:15.240Z,100.00
2023-01-10T18:53:42.724Z,100.00
2023-01-10T18:57:10.172Z,100.00
2023-01-10T19:00:37.323Z,100.00
2023-01-10T19:04:05.204Z,100.00
2023-01-10T19:07:32.262Z,100.00
2023-01-10T19:11:12.931Z,100.00
2023-01-10T19:14:41.373Z,100.00
2023-01-10T19:18:08.517Z,100.00
2023-01-10T19:21:37.942Z,100.00
2023-01-10T19:25:05.387Z,100.00
2023-01-10T19:28:32.308Z,100.00
2023-01-10T19:31:59.333Z,100.00
2023-01-10T19:35:26.281Z,100.00
2023-01-10T19:38:56.929Z,100.00
2023-01-10T19:42:25.947Z,100.00
2023-01-10T19:45:53.465Z,100.00
2023-01-10T19:49:20.742Z,100.00
2023-01-10T19:52:49.531Z,100.00
2023-01-10T19:56:21.776Z,100.00
2023-01-10T19:59:51.914Z,100.00
2023-01-10T20:03:18.908Z,100.00
2023-01-10T20:06:47.551Z,100.00
2023-01-10T20:10:15.131Z,100.00
2023-01-10T20:13:45.289Z,100.00
2023-01-10T20:17:12.354Z,100.00
2023-01-10T20:20:41.587Z,100.00
2023-01-10T20:24:14.107Z,100.00
2023-01-10T20:27:41.672Z,100.00
2023-01-10T20:31:10.910Z,100.00
2023-01-10T20:34:38.231Z,100.00
2023-01-10T20:38:07.791Z,100.00
2023-01-10T20:41:33.588Z,100.00
2023-01-10T20:45:00.905Z,100.00
2023-01-10T20:48:28.027Z,100.00
2023-01-10T20:51:55.015Z,100.00
2023-01-10T20:55:23.472Z,100.00
2023-01-10T20:58:51.625Z,100.00
2023-01-10T21:02:18.886Z,100.00
2023-01-10T21:05:51.679Z,100.00
2023-01-10T21:09:19.749Z,100.00
2023-01-10T21:12:46.804Z,100.00
2023-01-10T21:16:17.234Z,100.00
2023-01-10T21:19:44.298Z,100.00
2023-01-10T21:23:11.946Z,100.00
2023-01-10T21:26:39.391Z,100.00
2023-01-10T21:30:09.968Z,100.00
2023-01-10T21:33:37.386Z,100.00
2023-01-10T21:37:04.297Z,100.00
2023-01-10T21:40:32.222Z,100.00
2023-01-10T21:43:59.455Z,100.00
2023-01-10T21:47:26.720Z,100.00
2023-01-10T21:50:53.573Z,100.00
2023-01-10T21:54:20.698Z,100.00
2023-01-10T21:57:48.145Z,100.00
2023-01-10T22:01:15.306Z,100.00
2023-01-10T22:04:43.102Z,100.00
2023-01-10T22:08:10.296Z,100.00
2023-01-10T22:11:37.321Z,100.00
2023-01-10T22:15:04.821Z,100.00
2023-01-10T22:18:33.163Z,100.00
2023-01-10T22:22:01.164Z,100.00
2023-01-10T22:25:28.448Z,100.00
2023-01-10T22:28:55.376Z,100.00
2023-01-10T22:32:22.242Z,100.00
2023-01-10T22:35:49.281Z,100.00
2023-01-10T22:39:16.634Z,100.00
2023-01-10T22:42:43.617Z,100.00
2023-01-10T22:46:10.885Z,100.00
2023-01-10T22:49:37.742Z,100.00
2023-01-10T22:53:05.597Z,100.00
2023-01-10T22:56:33.411Z,100.00
2023-01-10T23:00:00.654Z,100.00
2023-01-10T23:03:27.908Z,100.00
2023-01-10T23:06:56.797Z,100.00
2023-01-10T23:10:30.613Z,100.00
2023-01-10T23:13:58.177Z,100.00
2023-01-10T23:17:25.187Z,100.00
2023-01-10T23:20:52.953Z,100.00
2023-01-10T23:24:19.982Z,100.00
2023-01-10T23:27:47.796Z,100.00
2023-01-10T23:31:19.417Z,100.00
2023-01-10T23:34:48.812Z,100.00
2023-01-10T23:38:15.729Z,100.00
2023-01-10T23:41:42.658Z,100.00
2023-01-10T23:45:12.624Z,100.00
2023-01-10T23:48:40.534Z,100.00
2023-01-10T23:52:07.969Z,100.00
2023-01-10T23:55:35.745Z,100.00
2023-01-10T23:59:02.682Z,100.00
